Time;durP1;ratioP1;P1;durP2;ratioP2;P2;SDS_P1;SDS_P2;PMS_P1;PMS_P2;Temp;Humidity;BMP_temperature;BMP_pressure;BME280_temperature;BME280_humidity;BME280_pressure;Samples;Min_cycle;Max_cycle;Signal;HPM_P1;HPM_P2
2022/02/19 00:08:50;;;;;;;2.50;1.50;;;;;;;8.75;68.22;97233.73;430639;1273;142786;-67
2022/02/19 00:18:56;;;;;;;2.30;1.20;;;;;;;8.90;66.51;97269.08;437176;1273;141026;-67
2022/02/19 00:29:02;;;;;;;2.30;0.80;;;;;;;9.01;65.01;97309.91;438368;1271;142333;-67
2022/02/19 00:39:08;;;;;;;1.70;0.60;;;;;;;8.84;63.05;97338.54;433327;1271;144379;-66
2022/02/19 00:49:13;;;;;;;2.90;1.30;;;;;;;8.65;59.86;97347.95;441530;1271;142840;-68
2022/02/19 00:59:19;;;;;;;2.40;0.70;;;;;;;8.35;58.37;97405.48;436343;1273;141146;-67
2022/02/19 01:09:26;;;;;;;1.70;0.50;;;;;;;7.87;56.47;97425.31;442326;1271;142860;-65
2022/02/19 01:19:32;;;;;;;1.80;0.50;;;;;;;7.57;55.12;97435.30;432451;1273;142561;-67
2022/02/19 01:29:38;;;;;;;1.80;0.50;;;;;;;7.44;55.04;97448.07;429836;1273;141846;-67
2022/02/19 01:39:44;;;;;;;1.30;0.50;;;;;;;7.47;54.22;97461.98;431193;1273;140653;-68
2022/02/19 01:49:50;;;;;;;2.50;1.00;;;;;;;7.24;53.69;97471.33;434103;1271;141384;-67
2022/02/19 01:59:56;;;;;;;0.90;0.50;;;;;;;7.15;53.19;97466.70;441241;1272;141616;-67
2022/02/19 02:10:02;;;;;;;1.40;0.60;;;;;;;6.95;53.23;97473.23;441415;1272;141643;-68
2022/02/19 02:20:09;;;;;;;0.70;0.60;;;;;;;6.82;52.47;97477.44;447122;1272;141548;-67
2022/02/19 02:30:18;;;;;;;2.90;0.90;;;;;;;6.85;52.83;97490.02;439826;1273;142358;-67
2022/02/19 02:40:23;;;;;;;4.10;0.70;;;;;;;6.91;53.13;97512.72;436231;1271;141835;-68
2022/02/19 02:50:29;;;;;;;2.80;0.90;;;;;;;6.91;52.72;97524.36;430394;1271;144587;-67
2022/02/19 03:00:55;;;;;;;2.90;0.50;;;;;;;6.77;52.54;97547.40;431998;1271;144946;-68
2022/02/19 03:11:01;;;;;;;3.40;1.60;;;;;;;6.55;51.46;97554.33;432532;1271;141450;-68
2022/02/19 03:21:07;;;;;;;3.30;0.90;;;;;;;6.41;51.61;97571.08;429984;1271;140980;-67
2022/02/19 03:31:13;;;;;;;1.90;0.40;;;;;;;6.38;51.04;97587.64;435873;1273;141323;-67
2022/02/19 03:41:19;;;;;;;4.00;1.10;;;;;;;6.29;50.77;97610.98;431804;1272;140938;-68
2022/02/19 03:51:25;;;;;;;2.20;0.60;;;;;;;6.11;50.80;97622.06;431672;1271;142089;-68
2022/02/19 04:01:31;;;;;;;4.70;1.00;;;;;;;6.11;51.01;97636.10;430712;1271;142128;-67
2022/02/19 04:11:38;;;;;;;1.80;0.50;;;;;;;6.11;51.18;97636.49;430756;1271;141497;-69
2022/02/19 04:21:44;;;;;;;3.80;0.90;;;;;;;5.96;51.68;97640.21;429890;1271;142471;-65
2022/02/19 04:31:54;;;;;;;4.70;0.90;;;;;;;5.90;51.63;97658.53;431411;1271;142730;-68
2022/02/19 04:42:01;;;;;;;2.50;0.80;;;;;;;5.74;50.83;97665.59;430201;1271;140918;-65
2022/02/19 04:52:07;;;;;;;2.30;0.70;;;;;;;5.38;50.31;97679.16;434320;1271;141545;-67
2022/02/19 05:02:13;;;;;;;2.80;1.10;;;;;;;5.10;50.82;97675.68;430515;1273;141624;-66
2022/02/19 05:12:19;;;;;;;1.10;0.60;;;;;;;4.80;50.86;97672.36;429811;1271;142566;-67
2022/02/19 05:22:24;;;;;;;3.80;0.80;;;;;;;4.64;50.54;97686.34;430263;1271;141847;-67
2022/02/19 05:32:30;;;;;;;5.30;2.00;;;;;;;4.52;50.69;97698.45;433241;1271;142459;-66
2022/02/19 05:42:36;;;;;;;2.20;0.80;;;;;;;4.39;50.25;97694.79;431877;1271;140771;-68
2022/02/19 05:52:42;;;;;;;3.70;0.50;;;;;;;4.42;49.34;97697.91;430779;1274;142635;-68
2022/02/19 06:02:48;;;;;;;3.00;0.70;;;;;;;4.45;48.89;97706.20;432360;1271;140730;-67
2022/02/19 06:12:53;;;;;;;1.30;0.60;;;;;;;4.49;48.79;97726.90;430754;1271;141425;-67
2022/02/19 06:23:00;;;;;;;2.20;0.70;;;;;;;4.59;49.08;97731.95;430709;1270;140719;-68
2022/02/19 06:33:05;;;;;;;2.90;0.90;;;;;;;4.83;49.02;97755.42;429347;1271;141727;-68
2022/02/19 06:43:11;;;;;;;2.60;1.30;;;;;;;5.44;48.66;97759.39;429694;1271;141516;-67
2022/02/19 06:53:17;;;;;;;3.40;1.70;;;;;;;8.13;46.38;97756.38;430004;1271;141370;-66
2022/02/19 07:03:23;;;;;;;2.50;1.30;;;;;;;11.04;43.01;97771.63;430810;1271;141990;-67
2022/02/19 07:13:29;;;;;;;11.10;1.90;;;;;;;11.70;41.80;97804.09;432315;1271;141964;-68
2022/02/19 07:23:34;;;;;;;1.60;0.70;;;;;;;8.76;41.16;97817.97;430501;1271;141705;-67
2022/02/19 07:33:40;;;;;;;1.20;0.50;;;;;;;7.19;43.41;97848.35;433583;1271;141736;-68
2022/02/19 07:43:47;;;;;;;9.80;1.10;;;;;;;6.56;44.45;97871.73;431479;1270;141575;-67
2022/02/19 08:04:19;;;;;;;8.10;1.10;;;;;;;7.54;44.21;97879.35;430468;1270;140141;-68
2022/02/19 08:14:24;;;;;;;1.20;0.60;;;;;;;9.18;42.21;97901.23;430748;1270;142074;-68
2022/02/19 08:24:30;;;;;;;3.50;0.80;;;;;;;9.33;40.78;97928.90;429810;1271;142478;-68
2022/02/19 08:34:36;;;;;;;1.70;0.50;;;;;;;9.29;40.76;97953.58;430921;1271;142186;-67
2022/02/19 08:44:42;;;;;;;3.90;0.90;;;;;;;8.11;42.12;97975.82;430738;1270;141093;-66
2022/02/19 08:54:48;;;;;;;1.50;0.80;;;;;;;9.95;41.77;97967.41;429297;1271;142441;-68
2022/02/19 09:04:55;;;;;;;2.50;0.90;;;;;;;12.99;37.88;97986.00;433779;1270;144987;-65
2022/02/19 09:15:00;;;;;;;3.40;1.20;;;;;;;10.78;38.07;98028.85;445640;1269;184409;-62
2022/02/19 09:25:08;;;;;;;3.30;0.60;;;;;;;8.75;40.32;98052.11;438010;1271;141866;-65
2022/02/19 09:35:14;;;;;;;3.40;1.80;;;;;;;7.46;41.72;98077.31;443918;1270;140941;-63
2022/02/19 09:45:23;;;;;;;1.60;0.70;;;;;;;6.94;42.85;98086.65;436348;1271;144733;-65
2022/02/19 09:55:30;;;;;;;1.50;0.50;;;;;;;6.68;43.57;98105.60;447498;1270;141440;-64
2022/02/19 10:05:36;;;;;;;3.60;0.50;;;;;;;6.77;43.76;98113.63;447315;1271;141545;-64
2022/02/19 10:15:49;;;;;;;2.80;0.70;;;;;;;7.12;43.95;98131.46;446678;1270;145286;-64
2022/02/19 10:26:05;;;;;;;2.30;0.60;;;;;;;7.27;43.75;98127.45;433603;1270;141144;-62
2022/02/19 10:36:20;;;;;;;4.80;0.70;;;;;;;7.23;43.86;98160.43;429044;1270;141633;-62
2022/02/19 10:46:29;;;;;;;3.90;1.00;;;;;;;7.32;43.93;98177.36;430497;1270;142248;-64
2022/02/19 10:56:37;;;;;;;4.10;0.90;;;;;;;7.36;44.24;98208.77;430801;1270;141431;-63
2022/02/19 11:06:44;;;;;;;1.40;1.00;;;;;;;7.27;43.79;98209.10;430121;1270;140219;-63
2022/02/19 11:16:50;;;;;;;4.90;1.10;;;;;;;7.10;44.67;98228.73;430326;1269;141113;-63
2022/02/19 11:26:58;;;;;;;6.80;1.60;;;;;;;7.07;44.91;98245.08;430708;1270;140902;-64
2022/02/19 11:37:24;;;;;;;2.00;0.70;;;;;;;6.91;45.35;98272.82;430840;1270;142462;-62
2022/02/19 11:47:30;;;;;;;1.40;1.10;;;;;;;6.90;45.87;98300.55;431198;1270;141410;-63
2022/02/19 11:57:36;;;;;;;3.90;0.60;;;;;;;7.36;45.99;98323.27;430337;1270;141639;-63
2022/02/19 12:07:59;;;;;;;2.90;1.20;;;;;;;7.47;45.45;98321.49;430779;1270;141169;-62
2022/02/19 12:18:09;;;;;;;4.90;0.90;;;;;;;7.22;45.50;98348.48;430883;1270;142598;-64
2022/02/19 12:28:19;;;;;;;1.20;0.70;;;;;;;6.77;46.32;98355.58;430056;1270;141246;-64
2022/02/19 12:38:28;;;;;;;2.00;0.80;;;;;;;6.63;46.83;98372.31;431539;1271;141202;-63
2022/02/19 12:48:35;;;;;;;5.70;0.90;;;;;;;6.44;47.21;98395.11;431204;1271;140425;-62
2022/02/19 12:58:49;;;;;;;2.80;1.00;;;;;;;6.27;47.58;98409.98;431798;1270;141618;-63
2022/02/19 13:09:04;;;;;;;3.00;0.60;;;;;;;6.44;47.62;98422.47;430849;1271;140832;-63
2022/02/19 13:19:10;;;;;;;9.10;1.00;;;;;;;6.66;47.77;98448.44;433235;1270;142806;-63
2022/02/19 13:29:24;;;;;;;5.10;1.10;;;;;;;6.74;47.71;98464.83;430927;1270;142032;-63
2022/02/19 13:39:38;;;;;;;1.30;1.10;;;;;;;6.76;47.58;98475.65;431156;1270;141965;-63
2022/02/19 13:49:47;;;;;;;2.70;1.40;;;;;;;6.63;47.80;98505.70;430132;1273;140944;-62
2022/02/19 14:00:05;;;;;;;1.50;0.80;;;;;;;6.35;48.02;98528.19;435888;1271;141844;-62
2022/02/19 14:10:12;;;;;;;2.70;1.10;;;;;;;6.15;48.52;98551.63;431559;1271;140281;-62
2022/02/19 14:20:20;;;;;;;3.10;1.10;;;;;;;6.07;48.74;98572.66;431120;1270;141334;-62
2022/02/19 14:30:28;;;;;;;5.20;1.10;;;;;;;5.77;49.17;98592.98;430352;1271;199945;-60
2022/02/19 14:40:38;;;;;;;3.70;1.30;;;;;;;5.59;49.57;98616.15;436707;1270;140474;-62
2022/02/19 14:50:45;;;;;;;2.30;1.40;;;;;;;5.39;49.83;98634.10;430738;1270;141703;-63
2022/02/19 15:00:51;;;;;;;3.30;1.10;;;;;;;5.42;50.15;98644.85;430714;1270;141006;-63
2022/02/19 15:10:56;;;;;;;2.20;1.10;;;;;;;5.43;50.22;98655.94;430621;1270;140232;-65
2022/02/19 15:21:03;;;;;;;6.40;1.40;;;;;;;5.34;50.45;98676.75;430597;1271;141579;-64
2022/02/19 15:31:09;;;;;;;1.40;1.00;;;;;;;5.15;50.75;98689.59;431618;1272;140825;-64
2022/02/19 15:41:15;;;;;;;3.10;1.30;;;;;;;5.00;51.29;98713.02;430737;1270;195649;-65
2022/02/19 15:51:21;;;;;;;4.30;1.40;;;;;;;4.85;51.36;98731.68;430221;1270;141826;-64
2022/02/19 16:01:27;;;;;;;1.90;0.90;;;;;;;4.74;52.17;98751.14;430697;1270;140279;-65
2022/02/19 16:11:34;;;;;;;2.60;1.50;;;;;;;4.67;52.04;98765.55;430363;1270;141723;-66
2022/02/19 16:21:41;;;;;;;5.50;1.40;;;;;;;4.58;52.80;98801.55;431125;1272;142945;-64
2022/02/19 16:31:46;;;;;;;5.70;1.30;;;;;;;4.47;53.11;98819.13;429561;1273;141600;-66
2022/02/19 16:41:52;;;;;;;6.00;1.80;;;;;;;4.37;53.46;98848.58;431487;1270;140536;-65
2022/02/19 16:51:58;;;;;;;8.80;1.80;;;;;;;4.29;54.04;98878.08;431268;1270;141873;-67
2022/02/19 17:02:04;;;;;;;2.20;1.30;;;;;;;4.22;54.34;98902.46;432403;1271;184133;-65
2022/02/19 17:12:11;;;;;;;3.70;1.70;;;;;;;4.19;53.98;98918.52;430653;1271;141807;-64
2022/02/19 17:22:17;;;;;;;4.20;2.20;;;;;;;4.15;53.94;98943.02;431877;1271;140740;-65
2022/02/19 17:32:22;;;;;;;4.90;1.10;;;;;;;4.08;54.13;98962.39;430999;1270;141435;-65
2022/02/19 17:42:29;;;;;;;7.10;2.40;;;;;;;4.04;54.11;98978.17;430010;1273;142009;-64
2022/02/19 17:52:35;;;;;;;7.50;2.10;;;;;;;4.04;53.78;98986.48;430726;1270;141361;-65
2022/02/19 18:02:40;;;;;;;1.60;1.20;;;;;;;4.03;53.63;98993.25;431623;1271;141022;-65
2022/02/19 18:12:46;;;;;;;3.00;1.60;;;;;;;3.99;53.40;98995.55;430823;1270;140480;-66
2022/02/19 18:22:52;;;;;;;3.40;1.90;;;;;;;3.96;53.32;99010.41;430572;1270;140862;-66
2022/02/19 18:32:58;;;;;;;6.00;1.90;;;;;;;3.94;53.15;99021.93;430176;1270;141301;-62
2022/02/19 18:43:05;;;;;;;4.30;1.30;;;;;;;3.91;52.84;99040.22;430266;1270;140702;-65
2022/02/19 18:53:25;;;;;;;4.60;2.10;;;;;;;3.88;52.50;99052.64;431382;1271;141647;-62
2022/02/19 19:03:32;;;;;;;5.60;2.20;;;;;;;3.85;52.88;99058.15;429835;1271;141859;-65
2022/02/19 19:13:38;;;;;;;2.20;1.30;;;;;;;3.83;52.62;99071.42;431589;1271;140766;-65
2022/02/19 19:23:44;;;;;;;3.70;1.60;;;;;;;3.82;52.59;99086.52;432816;1271;140669;-65
2022/02/19 19:33:50;;;;;;;7.20;1.90;;;;;;;3.81;52.53;99100.92;432474;1270;142177;-65
2022/02/19 19:43:56;;;;;;;2.90;2.00;;;;;;;3.84;52.56;99104.12;434299;1271;141687;-66
2022/02/19 19:54:02;;;;;;;3.00;1.80;;;;;;;3.81;52.31;99107.66;438388;1270;142797;-63
2022/02/19 20:04:08;;;;;;;5.30;1.70;;;;;;;3.84;52.52;99120.36;436176;1270;140709;-64
2022/02/19 20:14:14;;;;;;;3.10;1.90;;;;;;;3.82;52.60;99114.92;444081;1269;141247;-65
2022/02/19 20:24:20;;;;;;;4.80;1.50;;;;;;;3.81;52.24;99122.93;437358;1271;140493;-64
2022/02/19 20:34:26;;;;;;;3.50;1.70;;;;;;;3.78;52.66;99124.23;441669;1271;143603;-64
2022/02/19 20:44:34;;;;;;;3.10;1.10;;;;;;;3.77;52.50;99129.31;429619;1273;141124;-64
2022/02/19 20:54:40;;;;;;;4.60;1.60;;;;;;;3.72;52.76;99134.02;431394;1271;146180;-65
2022/02/19 21:04:46;;;;;;;4.50;1.40;;;;;;;3.66;52.84;99131.86;430101;1273;141600;-64
2022/02/19 21:14:52;;;;;;;3.60;2.00;;;;;;;3.58;53.02;99133.63;430544;1271;141312;-64
2022/02/19 21:24:58;;;;;;;2.70;1.30;;;;;;;3.54;53.08;99142.92;429487;1271;140950;-64
2022/02/19 21:35:04;;;;;;;2.90;1.10;;;;;;;3.48;53.01;99143.02;434026;1271;140865;-64
2022/02/19 21:45:11;;;;;;;4.80;1.20;;;;;;;3.42;52.91;99138.41;442386;1271;141532;-63
2022/02/19 21:55:17;;;;;;;3.60;1.70;;;;;;;3.38;53.27;99148.45;444358;1271;140651;-64
2022/02/19 22:05:23;;;;;;;3.30;1.20;;;;;;;3.34;53.39;99150.85;442718;1270;141370;-65
2022/02/19 22:15:32;;;;;;;6.30;2.00;;;;;;;3.25;53.59;99151.06;438521;1270;141559;-65
2022/02/19 22:25:39;;;;;;;2.50;1.60;;;;;;;2.86;53.79;99158.30;447563;1269;141355;-64
2022/02/19 22:35:45;;;;;;;3.90;1.80;;;;;;;2.43;54.36;99163.01;436034;1269;141514;-64
2022/02/19 22:45:51;;;;;;;4.30;1.90;;;;;;;2.05;55.05;99165.09;436455;1271;142527;-64
2022/02/19 22:55:57;;;;;;;5.10;2.30;;;;;;;1.70;55.54;99164.24;439527;1271;141247;-64
2022/02/19 23:06:03;;;;;;;5.90;2.70;;;;;;;1.33;56.31;99166.14;429970;1271;141408;-67
2022/02/19 23:16:09;;;;;;;7.50;3.20;;;;;;;1.00;57.15;99159.29;432337;1271;142537;-64
2022/02/19 23:26:17;;;;;;;6.60;3.50;;;;;;;0.69;57.83;99146.45;431330;1271;141182;-65
2022/02/19 23:36:24;;;;;;;6.40;3.50;;;;;;;0.43;58.28;99134.48;431002;1271;141120;-64
2022/02/19 23:46:30;;;;;;;12.70;5.90;;;;;;;0.22;58.82;99126.78;431695;1271;140736;-64
2022/02/19 23:56:36;;;;;;;9.30;4.60;;;;;;;-0.05;59.19;99118.42;433192;1271;140262;-65
